sensor_id;sensor_type;location;lat;lon;timestamp;temperature;humidity
54576;DHT22;40472;53.486;14.542;2023-02-17T00:00:51;5.70;99.90
54576;DHT22;40472;53.486;14.542;2023-02-17T00:03:16;5.70;99.90
54576;DHT22;40472;53.486;14.542;2023-02-17T00:05:42;5.70;99.90
54576;DHT22;40472;53.486;14.542;2023-02-17T00:08:08;5.70;99.90
54576;DHT22;40472;53.486;14.542;2023-02-17T00:10:34;5.60;99.90
54576;DHT22;40472;53.486;14.542;2023-02-17T00:13:00;5.70;99.90
54576;DHT22;40472;53.486;14.542;2023-02-17T00:15:26;5.60;99.90
54576;DHT22;40472;53.486;14.542;2023-02-17T00:17:51;5.60;99.90
54576;DHT22;40472;53.486;14.542;2023-02-17T00:20:17;5.60;99.90
54576;DHT22;40472;53.486;14.542;2023-02-17T00:22:43;5.60;99.90
54576;DHT22;40472;53.486;14.542;2023-02-17T00:25:09;5.60;99.90
54576;DHT22;40472;53.486;14.542;2023-02-17T00:27:34;5.60;99.90
54576;DHT22;40472;53.486;14.542;2023-02-17T00:30:00;5.60;99.90
54576;DHT22;40472;53.486;14.542;2023-02-17T00:32:26;5.60;99.90
54576;DHT22;40472;53.486;14.542;2023-02-17T00:34:52;5.60;99.90
54576;DHT22;40472;53.486;14.542;2023-02-17T00:37:20;5.60;99.90
54576;DHT22;40472;53.486;14.542;2023-02-17T00:39:46;5.70;99.90
54576;DHT22;40472;53.486;14.542;2023-02-17T00:42:12;5.60;99.90
54576;DHT22;40472;53.486;14.542;2023-02-17T00:44:38;5.70;99.90
54576;DHT22;40472;53.486;14.542;2023-02-17T00:47:04;5.70;99.90
54576;DHT22;40472;53.486;14.542;2023-02-17T00:49:30;5.70;99.90
54576;DHT22;40472;53.486;14.542;2023-02-17T00:51:58;5.70;99.90
54576;DHT22;40472;53.486;14.542;2023-02-17T00:54:25;5.70;99.90
54576;DHT22;40472;53.486;14.542;2023-02-17T00:56:51;5.70;99.90
54576;DHT22;40472;53.486;14.542;2023-02-17T00:59:17;5.80;99.90
54576;DHT22;40472;53.486;14.542;2023-02-17T01:01:43;5.80;99.90
54576;DHT22;40472;53.486;14.542;2023-02-17T01:04:10;5.70;99.90
54576;DHT22;40472;53.486;14.542;2023-02-17T01:06:37;5.70;99.90
54576;DHT22;40472;53.486;14.542;2023-02-17T01:09:05;5.80;99.90
54576;DHT22;40472;53.486;14.542;2023-02-17T01:11:34;5.80;99.90
54576;DHT22;40472;53.486;14.542;2023-02-17T01:14:02;5.80;99.90
54576;DHT22;40472;53.486;14.542;2023-02-17T01:16:38;5.70;99.90
54576;DHT22;40472;53.486;14.542;2023-02-17T01:19:09;5.70;99.90
54576;DHT22;40472;53.486;14.542;2023-02-17T01:21:35;5.70;99.90
54576;DHT22;40472;53.486;14.542;2023-02-17T01:24:03;5.70;99.90
54576;DHT22;40472;53.486;14.542;2023-02-17T01:26:31;5.70;99.90
54576;DHT22;40472;53.486;14.542;2023-02-17T01:28:57;5.70;99.90
54576;DHT22;40472;53.486;14.542;2023-02-17T01:31:23;5.70;99.90
54576;DHT22;40472;53.486;14.542;2023-02-17T01:33:52;5.70;99.90
54576;DHT22;40472;53.486;14.542;2023-02-17T01:36:19;5.70;99.90
54576;DHT22;40472;53.486;14.542;2023-02-17T01:38:45;5.70;99.90
54576;DHT22;40472;53.486;14.542;2023-02-17T01:41:12;5.70;99.90
54576;DHT22;40472;53.486;14.542;2023-02-17T01:43:38;5.70;99.90
54576;DHT22;40472;53.486;14.542;2023-02-17T01:46:05;5.60;99.90
54576;DHT22;40472;53.486;14.542;2023-02-17T01:48:42;5.70;99.90
54576;DHT22;40472;53.486;14.542;2023-02-17T01:51:16;5.70;99.90
54576;DHT22;40472;53.486;14.542;2023-02-17T01:54:05;5.70;99.90
54576;DHT22;40472;53.486;14.542;2023-02-17T01:56:33;5.60;99.90
54576;DHT22;40472;53.486;14.542;2023-02-17T01:59:03;5.60;99.90
54576;DHT22;40472;53.486;14.542;2023-02-17T02:01:31;5.70;99.90
54576;DHT22;40472;53.486;14.542;2023-02-17T02:03:58;5.60;99.90
54576;DHT22;40472;53.486;14.542;2023-02-17T02:06:26;5.60;99.90
54576;DHT22;40472;53.486;14.542;2023-02-17T02:11:30;5.70;99.90
54576;DHT22;40472;53.486;14.542;2023-02-17T02:13:57;5.60;99.90
54576;DHT22;40472;53.486;14.542;2023-02-17T02:36:17;5.70;99.90
54576;DHT22;40472;53.486;14.542;2023-02-17T02:41:21;5.70;99.90
54576;DHT22;40472;53.486;14.542;2023-02-17T02:43:49;5.70;99.90
54576;DHT22;40472;53.486;14.542;2023-02-17T02:46:15;5.70;99.90
54576;DHT22;40472;53.486;14.542;2023-02-17T02:48:41;5.70;99.90
54576;DHT22;40472;53.486;14.542;2023-02-17T02:56:26;5.70;99.90
54576;DHT22;40472;53.486;14.542;2023-02-17T02:59:32;5.70;99.90
54576;DHT22;40472;53.486;14.542;2023-02-17T03:05:06;5.70;99.90
54576;DHT22;40472;53.486;14.542;2023-02-17T03:07:51;5.70;99.90
54576;DHT22;40472;53.486;14.542;2023-02-17T03:10:19;5.70;99.90
54576;DHT22;40472;53.486;14.542;2023-02-17T03:12:45;5.70;99.90
54576;DHT22;40472;53.486;14.542;2023-02-17T03:15:32;5.70;99.90
54576;DHT22;40472;53.486;14.542;2023-02-17T03:17:58;5.70;99.90
54576;DHT22;40472;53.486;14.542;2023-02-17T03:20:25;5.70;99.90
54576;DHT22;40472;53.486;14.542;2023-02-17T03:22:52;5.70;99.90
54576;DHT22;40472;53.486;14.542;2023-02-17T03:25:17;5.70;99.90
54576;DHT22;40472;53.486;14.542;2023-02-17T03:27:43;5.70;99.90
54576;DHT22;40472;53.486;14.542;2023-02-17T03:30:09;5.70;99.90
54576;DHT22;40472;53.486;14.542;2023-02-17T03:32:35;5.70;99.90
54576;DHT22;40472;53.486;14.542;2023-02-17T03:35:01;5.80;99.90
54576;DHT22;40472;53.486;14.542;2023-02-17T03:37:27;5.80;99.90
54576;DHT22;40472;53.486;14.542;2023-02-17T03:39:53;5.70;99.90
54576;DHT22;40472;53.486;14.542;2023-02-17T03:42:19;5.80;99.90
54576;DHT22;40472;53.486;14.542;2023-02-17T03:44:44;5.80;99.90
54576;DHT22;40472;53.486;14.542;2023-02-17T03:47:10;5.80;99.90
54576;DHT22;40472;53.486;14.542;2023-02-17T03:49:36;5.80;99.90
54576;DHT22;40472;53.486;14.542;2023-02-17T03:52:02;5.80;99.90
54576;DHT22;40472;53.486;14.542;2023-02-17T03:54:28;5.80;99.90
54576;DHT22;40472;53.486;14.542;2023-02-17T03:56:53;5.80;99.90
54576;DHT22;40472;53.486;14.542;2023-02-17T03:59:19;5.90;99.90
54576;DHT22;40472;53.486;14.542;2023-02-17T04:01:45;5.90;99.90
54576;DHT22;40472;53.486;14.542;2023-02-17T04:04:10;5.90;99.90
54576;DHT22;40472;53.486;14.542;2023-02-17T04:06:36;5.90;99.90
54576;DHT22;40472;53.486;14.542;2023-02-17T04:09:02;5.90;99.90
54576;DHT22;40472;53.486;14.542;2023-02-17T04:11:28;5.90;99.90
54576;DHT22;40472;53.486;14.542;2023-02-17T04:13:53;5.90;99.90
54576;DHT22;40472;53.486;14.542;2023-02-17T04:16:19;5.90;99.90
54576;DHT22;40472;53.486;14.542;2023-02-17T04:18:45;5.90;99.90
54576;DHT22;40472;53.486;14.542;2023-02-17T04:21:11;5.90;99.90
54576;DHT22;40472;53.486;14.542;2023-02-17T04:23:37;6.00;99.90
54576;DHT22;40472;53.486;14.542;2023-02-17T04:26:04;6.00;99.90
54576;DHT22;40472;53.486;14.542;2023-02-17T04:28:29;6.00;99.90
54576;DHT22;40472;53.486;14.542;2023-02-17T04:30:57;6.00;99.90
54576;DHT22;40472;53.486;14.542;2023-02-17T04:33:23;6.00;99.90
54576;DHT22;40472;53.486;14.542;2023-02-17T04:35:49;6.00;99.90
54576;DHT22;40472;53.486;14.542;2023-02-17T04:38:15;6.00;99.90
54576;DHT22;40472;53.486;14.542;2023-02-17T04:40:41;6.00;99.90
54576;DHT22;40472;53.486;14.542;2023-02-17T04:43:07;6.00;99.90
54576;DHT22;40472;53.486;14.542;2023-02-17T04:45:36;6.00;99.90
54576;DHT22;40472;53.486;14.542;2023-02-17T04:48:02;6.00;99.90
54576;DHT22;40472;53.486;14.542;2023-02-17T04:50:28;6.10;99.90
54576;DHT22;40472;53.486;14.542;2023-02-17T04:52:54;6.10;99.90
54576;DHT22;40472;53.486;14.542;2023-02-17T04:55:20;6.10;99.90
54576;DHT22;40472;53.486;14.542;2023-02-17T04:57:45;6.10;99.90
54576;DHT22;40472;53.486;14.542;2023-02-17T05:00:11;6.10;99.90
54576;DHT22;40472;53.486;14.542;2023-02-17T05:02:37;6.20;99.90
54576;DHT22;40472;53.486;14.542;2023-02-17T05:05:03;6.10;99.90
54576;DHT22;40472;53.486;14.542;2023-02-17T05:07:29;6.10;99.90
54576;DHT22;40472;53.486;14.542;2023-02-17T05:09:55;6.20;99.90
54576;DHT22;40472;53.486;14.542;2023-02-17T05:12:20;6.20;99.90
54576;DHT22;40472;53.486;14.542;2023-02-17T05:14:46;6.20;99.90
54576;DHT22;40472;53.486;14.542;2023-02-17T05:17:12;6.20;99.90
54576;DHT22;40472;53.486;14.542;2023-02-17T05:19:38;6.20;99.90
54576;DHT22;40472;53.486;14.542;2023-02-17T05:22:03;6.20;99.90
54576;DHT22;40472;53.486;14.542;2023-02-17T05:24:29;6.20;99.90
54576;DHT22;40472;53.486;14.542;2023-02-17T05:26:55;6.20;99.90
54576;DHT22;40472;53.486;14.542;2023-02-17T05:29:20;6.30;99.90
54576;DHT22;40472;53.486;14.542;2023-02-17T05:31:47;6.30;99.90
54576;DHT22;40472;53.486;14.542;2023-02-17T05:34:13;6.30;99.90
54576;DHT22;40472;53.486;14.542;2023-02-17T05:36:39;6.20;99.90
54576;DHT22;40472;53.486;14.542;2023-02-17T05:39:05;6.30;99.90
54576;DHT22;40472;53.486;14.542;2023-02-17T05:41:30;6.20;99.90
54576;DHT22;40472;53.486;14.542;2023-02-17T05:43:56;6.30;99.90
54576;DHT22;40472;53.486;14.542;2023-02-17T05:46:22;6.30;99.90
54576;DHT22;40472;53.486;14.542;2023-02-17T05:48:48;6.30;99.90
54576;DHT22;40472;53.486;14.542;2023-02-17T05:51:14;6.30;99.90
54576;DHT22;40472;53.486;14.542;2023-02-17T05:53:42;6.30;99.90
54576;DHT22;40472;53.486;14.542;2023-02-17T05:56:08;6.30;99.90
54576;DHT22;40472;53.486;14.542;2023-02-17T05:58:34;6.30;99.90
54576;DHT22;40472;53.486;14.542;2023-02-17T06:00:59;6.30;99.90
54576;DHT22;40472;53.486;14.542;2023-02-17T06:03:25;6.40;99.90
54576;DHT22;40472;53.486;14.542;2023-02-17T06:05:51;6.30;99.90
54576;DHT22;40472;53.486;14.542;2023-02-17T06:08:17;6.40;99.90
54576;DHT22;40472;53.486;14.542;2023-02-17T06:10:42;6.40;99.90
54576;DHT22;40472;53.486;14.542;2023-02-17T06:13:08;6.40;99.90
54576;DHT22;40472;53.486;14.542;2023-02-17T06:15:34;6.40;99.90
54576;DHT22;40472;53.486;14.542;2023-02-17T06:17:59;6.40;99.90
54576;DHT22;40472;53.486;14.542;2023-02-17T06:20:25;6.40;99.90
54576;DHT22;40472;53.486;14.542;2023-02-17T06:22:51;6.40;99.90
54576;DHT22;40472;53.486;14.542;2023-02-17T06:25:17;6.40;99.90
54576;DHT22;40472;53.486;14.542;2023-02-17T06:27:42;6.40;99.90
54576;DHT22;40472;53.486;14.542;2023-02-17T06:30:09;6.40;99.90
54576;DHT22;40472;53.486;14.542;2023-02-17T06:32:35;6.40;99.90
54576;DHT22;40472;53.486;14.542;2023-02-17T06:35:01;6.40;99.90
54576;DHT22;40472;53.486;14.542;2023-02-17T06:37:27;6.40;99.90
54576;DHT22;40472;53.486;14.542;2023-02-17T06:39:52;6.50;99.90
54576;DHT22;40472;53.486;14.542;2023-02-17T06:42:18;6.50;99.90
54576;DHT22;40472;53.486;14.542;2023-02-17T06:44:44;6.50;99.90
54576;DHT22;40472;53.486;14.542;2023-02-17T06:47:10;6.50;99.90
54576;DHT22;40472;53.486;14.542;2023-02-17T06:49:36;6.50;99.90
54576;DHT22;40472;53.486;14.542;2023-02-17T06:52:02;6.50;99.90
54576;DHT22;40472;53.486;14.542;2023-02-17T06:54:28;6.50;99.90
54576;DHT22;40472;53.486;14.542;2023-02-17T06:56:54;6.60;99.90
54576;DHT22;40472;53.486;14.542;2023-02-17T06:59:20;6.60;99.90
54576;DHT22;40472;53.486;14.542;2023-02-17T07:01:46;6.60;99.90
54576;DHT22;40472;53.486;14.542;2023-02-17T07:04:14;6.60;99.90
54576;DHT22;40472;53.486;14.542;2023-02-17T07:06:39;6.60;99.90
54576;DHT22;40472;53.486;14.542;2023-02-17T07:09:06;6.60;99.90
54576;DHT22;40472;53.486;14.542;2023-02-17T07:11:31;6.60;99.90
54576;DHT22;40472;53.486;14.542;2023-02-17T07:13:58;6.60;99.90
54576;DHT22;40472;53.486;14.542;2023-02-17T07:16:24;6.70;99.90
54576;DHT22;40472;53.486;14.542;2023-02-17T07:18:50;6.70;99.90
54576;DHT22;40472;53.486;14.542;2023-02-17T07:21:16;6.70;99.90
54576;DHT22;40472;53.486;14.542;2023-02-17T07:23:42;6.70;99.90
54576;DHT22;40472;53.486;14.542;2023-02-17T07:26:10;6.70;99.90
54576;DHT22;40472;53.486;14.542;2023-02-17T07:28:37;6.70;99.90
54576;DHT22;40472;53.486;14.542;2023-02-17T07:31:07;6.70;99.90
54576;DHT22;40472;53.486;14.542;2023-02-17T07:33:33;6.80;99.90
54576;DHT22;40472;53.486;14.542;2023-02-17T07:36:00;6.80;99.90
54576;DHT22;40472;53.486;14.542;2023-02-17T07:38:28;6.80;99.90
54576;DHT22;40472;53.486;14.542;2023-02-17T07:40:54;6.80;99.90
54576;DHT22;40472;53.486;14.542;2023-02-17T07:43:20;6.80;99.90
54576;DHT22;40472;53.486;14.542;2023-02-17T07:45:46;6.80;99.90
54576;DHT22;40472;53.486;14.542;2023-02-17T07:48:12;6.90;99.90
54576;DHT22;40472;53.486;14.542;2023-02-17T07:50:38;6.90;99.90
54576;DHT22;40472;53.486;14.542;2023-02-17T07:53:04;6.90;99.90
54576;DHT22;40472;53.486;14.542;2023-02-17T07:55:30;6.90;99.90
54576;DHT22;40472;53.486;14.542;2023-02-17T07:57:56;6.90;99.90
54576;DHT22;40472;53.486;14.542;2023-02-17T08:00:22;6.90;99.90
54576;DHT22;40472;53.486;14.542;2023-02-17T08:02:48;7.00;99.90
54576;DHT22;40472;53.486;14.542;2023-02-17T08:05:14;7.00;99.90
54576;DHT22;40472;53.486;14.542;2023-02-17T08:07:40;7.00;99.90
54576;DHT22;40472;53.486;14.542;2023-02-17T08:10:06;7.00;99.90
54576;DHT22;40472;53.486;14.542;2023-02-17T08:12:50;7.00;99.90
54576;DHT22;40472;53.486;14.542;2023-02-17T08:15:34;7.10;99.90
54576;DHT22;40472;53.486;14.542;2023-02-17T08:18:01;7.00;99.90
54576;DHT22;40472;53.486;14.542;2023-02-17T08:20:29;7.10;99.90
54576;DHT22;40472;53.486;14.542;2023-02-17T08:22:55;7.10;99.90
54576;DHT22;40472;53.486;14.542;2023-02-17T08:25:20;7.10;99.90
54576;DHT22;40472;53.486;14.542;2023-02-17T08:27:46;7.10;99.90
54576;DHT22;40472;53.486;14.542;2023-02-17T08:30:12;7.10;99.90
54576;DHT22;40472;53.486;14.542;2023-02-17T08:32:38;7.10;99.90
54576;DHT22;40472;53.486;14.542;2023-02-17T08:35:04;7.20;99.90
54576;DHT22;40472;53.486;14.542;2023-02-17T08:37:31;7.20;99.90
54576;DHT22;40472;53.486;14.542;2023-02-17T08:39:57;7.20;99.90
54576;DHT22;40472;53.486;14.542;2023-02-17T08:42:25;7.20;99.90
54576;DHT22;40472;53.486;14.542;2023-02-17T08:44:51;7.30;99.90
54576;DHT22;40472;53.486;14.542;2023-02-17T08:47:17;7.30;99.90
54576;DHT22;40472;53.486;14.542;2023-02-17T08:49:43;7.30;99.90
54576;DHT22;40472;53.486;14.542;2023-02-17T08:52:09;7.30;99.90
54576;DHT22;40472;53.486;14.542;2023-02-17T08:54:34;7.40;99.90
54576;DHT22;40472;53.486;14.542;2023-02-17T08:57:00;7.40;99.90
54576;DHT22;40472;53.486;14.542;2023-02-17T08:59:26;7.40;99.90
54576;DHT22;40472;53.486;14.542;2023-02-17T09:01:52;7.40;99.90
54576;DHT22;40472;53.486;14.542;2023-02-17T09:04:18;7.40;99.90
54576;DHT22;40472;53.486;14.542;2023-02-17T09:06:47;7.40;99.90
54576;DHT22;40472;53.486;14.542;2023-02-17T09:09:16;7.50;99.90
54576;DHT22;40472;53.486;14.542;2023-02-17T09:11:42;7.50;99.90
54576;DHT22;40472;53.486;14.542;2023-02-17T09:14:09;7.60;99.90
54576;DHT22;40472;53.486;14.542;2023-02-17T09:16:35;7.60;99.90
54576;DHT22;40472;53.486;14.542;2023-02-17T09:19:02;7.60;99.90
54576;DHT22;40472;53.486;14.542;2023-02-17T09:21:28;7.70;99.90
54576;DHT22;40472;53.486;14.542;2023-02-17T09:23:54;7.70;99.90
54576;DHT22;40472;53.486;14.542;2023-02-17T09:26:20;7.70;99.90
54576;DHT22;40472;53.486;14.542;2023-02-17T09:28:47;7.70;99.90
54576;DHT22;40472;53.486;14.542;2023-02-17T09:31:19;7.70;99.90
54576;DHT22;40472;53.486;14.542;2023-02-17T09:33:47;7.80;99.90
54576;DHT22;40472;53.486;14.542;2023-02-17T09:36:16;7.80;99.90
54576;DHT22;40472;53.486;14.542;2023-02-17T09:38:42;7.80;99.90
54576;DHT22;40472;53.486;14.542;2023-02-17T09:43:44;7.80;99.90
54576;DHT22;40472;53.486;14.542;2023-02-17T09:48:49;7.90;99.90
54576;DHT22;40472;53.486;14.542;2023-02-17T09:51:33;7.90;99.90
54576;DHT22;40472;53.486;14.542;2023-02-17T09:54:27;7.90;99.90
54576;DHT22;40472;53.486;14.542;2023-02-17T09:56:55;7.90;99.90
54576;DHT22;40472;53.486;14.542;2023-02-17T09:59:23;7.90;99.90
54576;DHT22;40472;53.486;14.542;2023-02-17T10:01:53;7.90;99.90
54576;DHT22;40472;53.486;14.542;2023-02-17T10:04:41;8.00;99.90
54576;DHT22;40472;53.486;14.542;2023-02-17T10:07:34;8.00;99.90
54576;DHT22;40472;53.486;14.542;2023-02-17T10:12:33;8.00;99.90
54576;DHT22;40472;53.486;14.542;2023-02-17T10:15:24;8.00;99.90
54576;DHT22;40472;53.486;14.542;2023-02-17T10:20:41;8.00;99.90
54576;DHT22;40472;53.486;14.542;2023-02-17T10:23:19;8.00;99.90
54576;DHT22;40472;53.486;14.542;2023-02-17T10:29:29;8.00;99.90
54576;DHT22;40472;53.486;14.542;2023-02-17T10:34:36;8.10;99.90
54576;DHT22;40472;53.486;14.542;2023-02-17T10:39:59;8.10;99.90
54576;DHT22;40472;53.486;14.542;2023-02-17T10:42:36;8.10;99.90
54576;DHT22;40472;53.486;14.542;2023-02-17T10:47:43;8.10;99.90
54576;DHT22;40472;53.486;14.542;2023-02-17T10:50:21;8.10;99.90
54576;DHT22;40472;53.486;14.542;2023-02-17T10:52:47;8.10;99.90
54576;DHT22;40472;53.486;14.542;2023-02-17T10:57:48;8.10;99.90
54576;DHT22;40472;53.486;14.542;2023-02-17T11:00:17;8.10;99.90
54576;DHT22;40472;53.486;14.542;2023-02-17T11:02:45;8.10;99.90
54576;DHT22;40472;53.486;14.542;2023-02-17T11:05:33;8.10;99.90
54576;DHT22;40472;53.486;14.542;2023-02-17T11:08:07;8.10;99.90
54576;DHT22;40472;53.486;14.542;2023-02-17T11:10:45;8.10;99.90
54576;DHT22;40472;53.486;14.542;2023-02-17T11:13:33;8.10;99.90
54576;DHT22;40472;53.486;14.542;2023-02-17T11:16:00;8.10;99.90
54576;DHT22;40472;53.486;14.542;2023-02-17T11:18:35;8.10;99.90
54576;DHT22;40472;53.486;14.542;2023-02-17T11:21:09;8.10;99.90
54576;DHT22;40472;53.486;14.542;2023-02-17T11:23:51;8.10;99.90
54576;DHT22;40472;53.486;14.542;2023-02-17T11:26:22;8.10;99.90
54576;DHT22;40472;53.486;14.542;2023-02-17T11:28:48;8.10;99.90
54576;DHT22;40472;53.486;14.542;2023-02-17T11:31:29;8.10;99.90
54576;DHT22;40472;53.486;14.542;2023-02-17T11:33:55;8.10;99.90
54576;DHT22;40472;53.486;14.542;2023-02-17T11:36:27;8.20;99.90
54576;DHT22;40472;53.486;14.542;2023-02-17T11:38:54;8.20;99.90
54576;DHT22;40472;53.486;14.542;2023-02-17T11:41:22;8.20;99.90
54576;DHT22;40472;53.486;14.542;2023-02-17T11:43:55;8.20;99.90
54576;DHT22;40472;53.486;14.542;2023-02-17T11:46:39;8.20;99.90
54576;DHT22;40472;53.486;14.542;2023-02-17T11:54:42;8.30;99.90
54576;DHT22;40472;53.486;14.542;2023-02-17T11:57:28;8.30;99.90
54576;DHT22;40472;53.486;14.542;2023-02-17T12:26:54;8.50;99.90
54576;DHT22;40472;53.486;14.542;2023-02-17T12:29:53;8.50;99.90
54576;DHT22;40472;53.486;14.542;2023-02-17T12:35:00;8.50;99.90
54576;DHT22;40472;53.486;14.542;2023-02-17T12:37:31;8.50;99.90
54576;DHT22;40472;53.486;14.542;2023-02-17T12:42:51;8.60;99.90
54576;DHT22;40472;53.486;14.542;2023-02-17T12:45:22;8.60;99.90
54576;DHT22;40472;53.486;14.542;2023-02-17T12:50:53;8.60;99.90
54576;DHT22;40472;53.486;14.542;2023-02-17T12:54:05;8.60;99.90
54576;DHT22;40472;53.486;14.542;2023-02-17T12:59:45;8.70;99.90
54576;DHT22;40472;53.486;14.542;2023-02-17T13:02:17;8.70;99.90
54576;DHT22;40472;53.486;14.542;2023-02-17T13:04:46;8.70;99.90
54576;DHT22;40472;53.486;14.542;2023-02-17T13:09:57;8.70;99.90
54576;DHT22;40472;53.486;14.542;2023-02-17T13:14:58;8.80;99.90
54576;DHT22;40472;53.486;14.542;2023-02-17T13:17:37;8.70;99.90
54576;DHT22;40472;53.486;14.542;2023-02-17T13:22:41;8.80;99.90
54576;DHT22;40472;53.486;14.542;2023-02-17T13:25:28;8.80;99.90
54576;DHT22;40472;53.486;14.542;2023-02-17T13:27:57;8.80;99.90
54576;DHT22;40472;53.486;14.542;2023-02-17T13:33:03;8.80;99.90
54576;DHT22;40472;53.486;14.542;2023-02-17T13:35:35;8.80;99.90
54576;DHT22;40472;53.486;14.542;2023-02-17T13:38:01;8.90;99.90
54576;DHT22;40472;53.486;14.542;2023-02-17T13:42:56;8.90;99.90
54576;DHT22;40472;53.486;14.542;2023-02-17T13:47:58;8.90;99.90
54576;DHT22;40472;53.486;14.542;2023-02-17T13:50:35;9.00;99.90
54576;DHT22;40472;53.486;14.542;2023-02-17T13:53:07;9.00;99.90
54576;DHT22;40472;53.486;14.542;2023-02-17T13:55:43;9.00;99.90
54576;DHT22;40472;53.486;14.542;2023-02-17T13:58:09;9.00;99.90
54576;DHT22;40472;53.486;14.542;2023-02-17T14:00:35;9.10;99.90
54576;DHT22;40472;53.486;14.542;2023-02-17T14:06:08;9.10;99.90
54576;DHT22;40472;53.486;14.542;2023-02-17T14:11:13;9.10;99.90
54576;DHT22;40472;53.486;14.542;2023-02-17T14:13:42;9.10;99.90
54576;DHT22;40472;53.486;14.542;2023-02-17T14:16:27;9.10;99.90
54576;DHT22;40472;53.486;14.542;2023-02-17T14:19:23;9.20;99.90
54576;DHT22;40472;53.486;14.542;2023-02-17T14:22:01;9.20;99.90
54576;DHT22;40472;53.486;14.542;2023-02-17T14:24:33;9.20;99.90
54576;DHT22;40472;53.486;14.542;2023-02-17T14:27:06;9.20;99.90
54576;DHT22;40472;53.486;14.542;2023-02-17T14:30:02;9.20;99.90
54576;DHT22;40472;53.486;14.542;2023-02-17T14:32:35;9.30;99.90
54576;DHT22;40472;53.486;14.542;2023-02-17T14:35:25;9.30;99.90
54576;DHT22;40472;53.486;14.542;2023-02-17T14:37:51;9.30;99.90
54576;DHT22;40472;53.486;14.542;2023-02-17T14:40:21;9.30;99.90
54576;DHT22;40472;53.486;14.542;2023-02-17T14:42:48;9.30;99.90
54576;DHT22;40472;53.486;14.542;2023-02-17T14:45:15;9.30;99.90
54576;DHT22;40472;53.486;14.542;2023-02-17T14:47:42;9.30;99.90
54576;DHT22;40472;53.486;14.542;2023-02-17T14:50:09;9.30;99.90
54576;DHT22;40472;53.486;14.542;2023-02-17T14:52:41;9.30;99.90
54576;DHT22;40472;53.486;14.542;2023-02-17T14:55:34;9.40;99.90
54576;DHT22;40472;53.486;14.542;2023-02-17T14:58:01;9.40;99.90
54576;DHT22;40472;53.486;14.542;2023-02-17T15:00:27;9.40;99.90
54576;DHT22;40472;53.486;14.542;2023-02-17T15:02:53;9.40;99.90
54576;DHT22;40472;53.486;14.542;2023-02-17T15:05:19;9.50;99.90
54576;DHT22;40472;53.486;14.542;2023-02-17T15:07:45;9.50;99.90
54576;DHT22;40472;53.486;14.542;2023-02-17T15:10:18;9.50;99.90
54576;DHT22;40472;53.486;14.542;2023-02-17T15:12:46;9.50;99.90
54576;DHT22;40472;53.486;14.542;2023-02-17T15:15:15;9.50;99.90
54576;DHT22;40472;53.486;14.542;2023-02-17T15:17:41;9.50;99.90
54576;DHT22;40472;53.486;14.542;2023-02-17T15:20:08;9.60;99.90
54576;DHT22;40472;53.486;14.542;2023-02-17T15:22:37;9.60;99.90
54576;DHT22;40472;53.486;14.542;2023-02-17T15:25:15;9.60;99.90
54576;DHT22;40472;53.486;14.542;2023-02-17T15:27:42;9.60;99.90
54576;DHT22;40472;53.486;14.542;2023-02-17T15:30:13;9.70;99.90
54576;DHT22;40472;53.486;14.542;2023-02-17T15:32:40;9.70;99.90
54576;DHT22;40472;53.486;14.542;2023-02-17T15:37:38;9.70;99.90
54576;DHT22;40472;53.486;14.542;2023-02-17T15:40:05;9.70;99.90
54576;DHT22;40472;53.486;14.542;2023-02-17T15:42:31;9.70;99.90
54576;DHT22;40472;53.486;14.542;2023-02-17T15:44:56;9.70;99.90
54576;DHT22;40472;53.486;14.542;2023-02-17T15:47:22;9.80;99.90
54576;DHT22;40472;53.486;14.542;2023-02-17T15:49:48;9.80;99.90
54576;DHT22;40472;53.486;14.542;2023-02-17T15:52:14;9.80;99.90
54576;DHT22;40472;53.486;14.542;2023-02-17T15:54:41;9.80;99.90
54576;DHT22;40472;53.486;14.542;2023-02-17T15:57:07;9.80;99.90
54576;DHT22;40472;53.486;14.542;2023-02-17T15:59:40;9.80;99.90
54576;DHT22;40472;53.486;14.542;2023-02-17T16:02:24;9.80;99.90
54576;DHT22;40472;53.486;14.542;2023-02-17T16:04:53;9.80;99.90
54576;DHT22;40472;53.486;14.542;2023-02-17T16:07:19;9.80;99.90
54576;DHT22;40472;53.486;14.542;2023-02-17T16:09:45;9.80;99.90
54576;DHT22;40472;53.486;14.542;2023-02-17T16:12:16;9.90;99.90
54576;DHT22;40472;53.486;14.542;2023-02-17T16:14:51;9.90;99.90
54576;DHT22;40472;53.486;14.542;2023-02-17T16:17:17;9.80;99.90
54576;DHT22;40472;53.486;14.542;2023-02-17T16:19:43;9.80;99.90
54576;DHT22;40472;53.486;14.542;2023-02-17T16:22:09;9.90;99.90
54576;DHT22;40472;53.486;14.542;2023-02-17T16:24:35;9.80;99.90
54576;DHT22;40472;53.486;14.542;2023-02-17T16:27:01;9.80;99.90
54576;DHT22;40472;53.486;14.542;2023-02-17T16:29:27;9.90;99.90
54576;DHT22;40472;53.486;14.542;2023-02-17T16:31:52;9.90;99.90
54576;DHT22;40472;53.486;14.542;2023-02-17T16:34:22;9.90;99.90
54576;DHT22;40472;53.486;14.542;2023-02-17T16:36:52;9.90;99.90
54576;DHT22;40472;53.486;14.542;2023-02-17T16:39:21;9.90;99.90
54576;DHT22;40472;53.486;14.542;2023-02-17T16:41:55;9.90;99.90
54576;DHT22;40472;53.486;14.542;2023-02-17T16:44:23;9.90;99.90
54576;DHT22;40472;53.486;14.542;2023-02-17T16:47:02;9.90;99.90
54576;DHT22;40472;53.486;14.542;2023-02-17T16:49:35;9.80;99.90
54576;DHT22;40472;53.486;14.542;2023-02-17T16:52:15;9.70;99.90
54576;DHT22;40472;53.486;14.542;2023-02-17T16:54:45;9.70;99.90
54576;DHT22;40472;53.486;14.542;2023-02-17T16:57:15;9.70;99.90
54576;DHT22;40472;53.486;14.542;2023-02-17T16:59:43;9.70;99.90
54576;DHT22;40472;53.486;14.542;2023-02-17T17:02:10;9.70;99.90
54576;DHT22;40472;53.486;14.542;2023-02-17T17:04:36;9.60;99.90
54576;DHT22;40472;53.486;14.542;2023-02-17T17:07:05;9.50;99.90
54576;DHT22;40472;53.486;14.542;2023-02-17T17:09:32;9.50;99.90
54576;DHT22;40472;53.486;14.542;2023-02-17T17:11:58;9.30;99.90
54576;DHT22;40472;53.486;14.542;2023-02-17T17:14:24;9.30;99.90
54576;DHT22;40472;53.486;14.542;2023-02-17T17:16:54;9.20;99.90
54576;DHT22;40472;53.486;14.542;2023-02-17T17:19:21;9.20;99.90
54576;DHT22;40472;53.486;14.542;2023-02-17T17:21:46;9.20;99.90
54576;DHT22;40472;53.486;14.542;2023-02-17T17:24:14;9.30;99.90
54576;DHT22;40472;53.486;14.542;2023-02-17T17:26:43;9.20;99.90
54576;DHT22;40472;53.486;14.542;2023-02-17T17:29:13;9.10;99.90
54576;DHT22;40472;53.486;14.542;2023-02-17T17:31:40;9.10;99.90
54576;DHT22;40472;53.486;14.542;2023-02-17T17:34:06;9.20;99.90
54576;DHT22;40472;53.486;14.542;2023-02-17T17:36:37;9.00;99.90
54576;DHT22;40472;53.486;14.542;2023-02-17T17:39:05;8.90;99.90
54576;DHT22;40472;53.486;14.542;2023-02-17T17:41:32;8.90;99.90
54576;DHT22;40472;53.486;14.542;2023-02-17T17:43:58;9.00;99.90
54576;DHT22;40472;53.486;14.542;2023-02-17T17:46:29;8.90;99.90